sensor_id;sensor_type;location;lat;lon;timestamp;pressure;altitude;pressure_sealevel;temperature;humidity
77526;BME280;66627;29.424;-98.496;2023-06-24T00:02:08;98344.58;;;37.32;28.92
77526;BME280;66627;29.424;-98.496;2023-06-24T00:04:34;98342.95;;;37.36;29.01
77526;BME280;66627;29.424;-98.496;2023-06-24T00:07:00;98342.04;;;37.46;28.95
77526;BME280;66627;29.424;-98.496;2023-06-24T00:09:25;98339.33;;;37.38;28.54
77526;BME280;66627;29.424;-98.496;2023-06-24T00:11:50;98339.79;;;37.34;28.35
77526;BME280;66627;29.424;-98.496;2023-06-24T00:14:15;98337.17;;;37.49;28.35
77526;BME280;66627;29.424;-98.496;2023-06-24T00:16:40;98343.33;;;36.83;28.97
77526;BME280;66627;29.424;-98.496;2023-06-24T00:19:05;98342.19;;;37.13;29.00
77526;BME280;66627;29.424;-98.496;2023-06-24T00:21:31;98345.03;;;37.32;28.83
77526;BME280;66627;29.424;-98.496;2023-06-24T00:23:58;98350.26;;;37.02;29.30
77526;BME280;66627;29.424;-98.496;2023-06-24T00:26:21;98355.84;;;37.03;29.62
77526;BME280;66627;29.424;-98.496;2023-06-24T00:28:47;98361.57;;;37.42;29.80
77526;BME280;66627;29.424;-98.496;2023-06-24T00:31:13;98361.80;;;36.51;29.77
77526;BME280;66627;29.424;-98.496;2023-06-24T00:33:39;98358.89;;;36.10;29.97
77526;BME280;66627;29.424;-98.496;2023-06-24T00:36:04;98364.45;;;36.33;30.10
77526;BME280;66627;29.424;-98.496;2023-06-24T00:38:30;98368.64;;;35.99;30.73
77526;BME280;66627;29.424;-98.496;2023-06-24T00:40:55;98372.05;;;36.09;31.05
77526;BME280;66627;29.424;-98.496;2023-06-24T00:43:21;98377.10;;;35.52;31.69
77526;BME280;66627;29.424;-98.496;2023-06-24T00:45:46;98369.72;;;35.75;32.18
77526;BME280;66627;29.424;-98.496;2023-06-24T00:48:12;98369.45;;;35.77;32.52
77526;BME280;66627;29.424;-98.496;2023-06-24T00:50:37;98370.65;;;35.01;34.06
77526;BME280;66627;29.424;-98.496;2023-06-24T00:53:02;98379.53;;;34.92;34.66
77526;BME280;66627;29.424;-98.496;2023-06-24T00:55:27;98381.93;;;35.31;34.91
77526;BME280;66627;29.424;-98.496;2023-06-24T00:57:54;98387.21;;;34.89;35.48
77526;BME280;66627;29.424;-98.496;2023-06-24T01:00:19;98404.29;;;34.82;35.75
77526;BME280;66627;29.424;-98.496;2023-06-24T01:02:44;98410.55;;;35.19;35.95
77526;BME280;66627;29.424;-98.496;2023-06-24T01:05:09;98415.94;;;34.04;37.09
77526;BME280;66627;29.424;-98.496;2023-06-24T01:07:35;98417.54;;;34.19;36.94
77526;BME280;66627;29.424;-98.496;2023-06-24T01:10:00;98426.07;;;34.96;36.61
77526;BME280;66627;29.424;-98.496;2023-06-24T01:12:25;98442.00;;;34.25;37.29
77526;BME280;66627;29.424;-98.496;2023-06-24T01:14:50;98442.88;;;33.85;37.43
77526;BME280;66627;29.424;-98.496;2023-06-24T01:17:19;98442.16;;;33.36;38.10
77526;BME280;66627;29.424;-98.496;2023-06-24T01:19:58;98445.06;;;33.80;37.71
77526;BME280;66627;29.424;-98.496;2023-06-24T01:22:15;98458.54;;;32.89;38.33
77526;BME280;66627;29.424;-98.496;2023-06-24T01:24:51;98467.66;;;33.61;38.04
77526;BME280;66627;29.424;-98.496;2023-06-24T01:27:10;98476.76;;;33.53;38.30
77526;BME280;66627;29.424;-98.496;2023-06-24T01:29:44;98484.29;;;33.45;37.90
77526;BME280;66627;29.424;-98.496;2023-06-24T01:31:51;98492.22;;;33.30;38.29
77526;BME280;66627;29.424;-98.496;2023-06-24T01:34:23;98500.51;;;33.71;38.01
77526;BME280;66627;29.424;-98.496;2023-06-24T01:36:40;98511.06;;;33.13;38.20
77526;BME280;66627;29.424;-98.496;2023-06-24T01:39:07;98516.11;;;33.37;38.18
77526;BME280;66627;29.424;-98.496;2023-06-24T01:41:34;98531.82;;;33.26;38.18
77526;BME280;66627;29.424;-98.496;2023-06-24T01:43:56;98537.81;;;33.49;38.12
77526;BME280;66627;29.424;-98.496;2023-06-24T01:46:22;98545.14;;;34.00;37.47
77526;BME280;66627;29.424;-98.496;2023-06-24T01:48:46;98548.89;;;33.79;37.79
77526;BME280;66627;29.424;-98.496;2023-06-24T01:51:14;98560.48;;;33.77;37.60
77526;BME280;66627;29.424;-98.496;2023-06-24T01:53:38;98569.71;;;34.26;37.10
77526;BME280;66627;29.424;-98.496;2023-06-24T01:56:04;98573.23;;;34.05;37.81
77526;BME280;66627;29.424;-98.496;2023-06-24T01:58:28;98580.46;;;33.46;37.82
77526;BME280;66627;29.424;-98.496;2023-06-24T02:00:54;98592.50;;;33.77;37.49
77526;BME280;66627;29.424;-98.496;2023-06-24T02:03:19;98598.84;;;33.68;37.98
77526;BME280;66627;29.424;-98.496;2023-06-24T02:05:45;98599.32;;;32.98;38.62
77526;BME280;66627;29.424;-98.496;2023-06-24T02:08:11;98604.97;;;33.07;38.64
77526;BME280;66627;29.424;-98.496;2023-06-24T02:10:38;98608.25;;;33.41;37.94
77526;BME280;66627;29.424;-98.496;2023-06-24T02:13:01;98612.02;;;32.95;38.07
77526;BME280;66627;29.424;-98.496;2023-06-24T02:15:28;98615.49;;;32.92;38.44
77526;BME280;66627;29.424;-98.496;2023-06-24T02:17:53;98620.64;;;32.83;38.85
77526;BME280;66627;29.424;-98.496;2023-06-24T02:20:18;98625.97;;;32.63;38.88
77526;BME280;66627;29.424;-98.496;2023-06-24T02:22:44;98625.62;;;32.70;39.42
77526;BME280;66627;29.424;-98.496;2023-06-24T02:25:08;98622.62;;;32.82;39.05
77526;BME280;66627;29.424;-98.496;2023-06-24T02:27:34;98629.47;;;33.08;38.87
77526;BME280;66627;29.424;-98.496;2023-06-24T02:30:02;98634.71;;;32.49;39.48
77526;BME280;66627;29.424;-98.496;2023-06-24T02:32:24;98639.77;;;32.81;39.69
77526;BME280;66627;29.424;-98.496;2023-06-24T02:34:50;98641.64;;;32.96;39.20
77526;BME280;66627;29.424;-98.496;2023-06-24T02:37:15;98645.10;;;32.33;40.34
77526;BME280;66627;29.424;-98.496;2023-06-24T02:39:41;98646.55;;;32.12;40.43
77526;BME280;66627;29.424;-98.496;2023-06-24T02:42:06;98655.82;;;32.62;40.09
77526;BME280;66627;29.424;-98.496;2023-06-24T02:44:31;98661.97;;;33.30;39.52
77526;BME280;66627;29.424;-98.496;2023-06-24T02:46:57;98656.82;;;32.91;39.48
77526;BME280;66627;29.424;-98.496;2023-06-24T02:49:22;98654.54;;;32.33;40.32
77526;BME280;66627;29.424;-98.496;2023-06-24T02:51:48;98655.33;;;32.24;40.59
77526;BME280;66627;29.424;-98.496;2023-06-24T02:54:14;98655.98;;;31.90;40.66
77526;BME280;66627;29.424;-98.496;2023-06-24T02:56:39;98659.45;;;32.27;40.38
77526;BME280;66627;29.424;-98.496;2023-06-24T02:59:04;98655.36;;;32.33;40.30
77526;BME280;66627;29.424;-98.496;2023-06-24T03:01:30;98653.33;;;31.98;41.20
77526;BME280;66627;29.424;-98.496;2023-06-24T03:03:56;98657.05;;;31.45;41.92
77526;BME280;66627;29.424;-98.496;2023-06-24T03:06:21;98658.94;;;31.94;41.63
77526;BME280;66627;29.424;-98.496;2023-06-24T03:08:46;98656.51;;;32.27;40.73
77526;BME280;66627;29.424;-98.496;2023-06-24T03:11:13;98658.05;;;31.53;41.55
77526;BME280;66627;29.424;-98.496;2023-06-24T03:13:37;98659.76;;;31.86;41.60
77526;BME280;66627;29.424;-98.496;2023-06-24T03:16:02;98663.82;;;31.98;41.47
77526;BME280;66627;29.424;-98.496;2023-06-24T03:18:27;98667.63;;;32.11;40.94
77526;BME280;66627;29.424;-98.496;2023-06-24T03:20:52;98673.77;;;31.73;41.61
77526;BME280;66627;29.424;-98.496;2023-06-24T03:23:17;98676.12;;;31.35;42.69
77526;BME280;66627;29.424;-98.496;2023-06-24T03:25:43;98671.63;;;31.58;42.89
77526;BME280;66627;29.424;-98.496;2023-06-24T03:28:08;98666.86;;;31.35;42.57
77526;BME280;66627;29.424;-98.496;2023-06-24T03:30:34;98664.88;;;31.51;43.19
77526;BME280;66627;29.424;-98.496;2023-06-24T03:32:59;98671.13;;;31.01;44.06
77526;BME280;66627;29.424;-98.496;2023-06-24T03:35:24;98674.95;;;31.08;44.09
77526;BME280;66627;29.424;-98.496;2023-06-24T03:37:50;98676.69;;;31.33;43.87
77526;BME280;66627;29.424;-98.496;2023-06-24T03:40:15;98681.10;;;31.39;44.00
77526;BME280;66627;29.424;-98.496;2023-06-24T03:42:41;98685.03;;;31.63;43.96
77526;BME280;66627;29.424;-98.496;2023-06-24T03:45:08;98682.15;;;31.31;44.09
77526;BME280;66627;29.424;-98.496;2023-06-24T03:47:31;98683.31;;;31.58;43.72
77526;BME280;66627;29.424;-98.496;2023-06-24T03:49:57;98681.29;;;31.25;44.54
77526;BME280;66627;29.424;-98.496;2023-06-24T03:52:23;98682.53;;;31.53;44.12
77526;BME280;66627;29.424;-98.496;2023-06-24T03:54:48;98678.21;;;31.40;44.75
77526;BME280;66627;29.424;-98.496;2023-06-24T03:57:13;98679.88;;;30.82;45.38
77526;BME280;66627;29.424;-98.496;2023-06-24T03:59:38;98680.50;;;30.80;45.58
77526;BME280;66627;29.424;-98.496;2023-06-24T04:02:04;98685.47;;;31.15;45.22
77526;BME280;66627;29.424;-98.496;2023-06-24T04:04:28;98690.09;;;31.01;45.43
77526;BME280;66627;29.424;-98.496;2023-06-24T04:06:54;98693.84;;;31.20;45.10
77526;BME280;66627;29.424;-98.496;2023-06-24T04:09:20;98704.96;;;31.04;45.32
77526;BME280;66627;29.424;-98.496;2023-06-24T04:11:45;98711.63;;;30.75;45.34
77526;BME280;66627;29.424;-98.496;2023-06-24T04:14:11;98716.34;;;30.79;46.18
77526;BME280;66627;29.424;-98.496;2023-06-24T04:16:37;98715.28;;;30.81;45.77
77526;BME280;66627;29.424;-98.496;2023-06-24T04:19:01;98718.71;;;31.03;45.79
77526;BME280;66627;29.424;-98.496;2023-06-24T04:21:26;98730.55;;;30.68;45.84
77526;BME280;66627;29.424;-98.496;2023-06-24T04:23:53;98739.22;;;30.44;46.62
77526;BME280;66627;29.424;-98.496;2023-06-24T04:26:18;98740.93;;;30.50;46.37
77526;BME280;66627;29.424;-98.496;2023-06-24T04:28:43;98741.36;;;30.59;46.38
77526;BME280;66627;29.424;-98.496;2023-06-24T04:31:08;98739.83;;;30.51;46.52
77526;BME280;66627;29.424;-98.496;2023-06-24T04:33:35;98745.00;;;29.60;48.33
77526;BME280;66627;29.424;-98.496;2023-06-24T04:36:00;98753.93;;;29.72;48.10
77526;BME280;66627;29.424;-98.496;2023-06-24T04:38:24;98761.08;;;29.74;48.48
77526;BME280;66627;29.424;-98.496;2023-06-24T04:40:50;98768.51;;;29.59;48.78
77526;BME280;66627;29.424;-98.496;2023-06-24T04:43:15;98767.90;;;29.31;49.47
77526;BME280;66627;29.424;-98.496;2023-06-24T04:45:40;98770.91;;;30.14;47.83
77526;BME280;66627;29.424;-98.496;2023-06-24T04:48:06;98772.40;;;29.88;47.99
77526;BME280;66627;29.424;-98.496;2023-06-24T04:50:31;98770.72;;;30.28;47.61
77526;BME280;66627;29.424;-98.496;2023-06-24T04:52:56;98777.06;;;29.90;48.57
77526;BME280;66627;29.424;-98.496;2023-06-24T04:55:22;98784.89;;;29.52;49.01
77526;BME280;66627;29.424;-98.496;2023-06-24T04:57:47;98788.70;;;29.52;49.15
77526;BME280;66627;29.424;-98.496;2023-06-24T05:00:14;98788.94;;;29.30;49.94
77526;BME280;66627;29.424;-98.496;2023-06-24T05:02:37;98794.45;;;30.12;48.52
77526;BME280;66627;29.424;-98.496;2023-06-24T05:05:02;98800.13;;;29.96;49.18
77526;BME280;66627;29.424;-98.496;2023-06-24T05:07:29;98803.94;;;29.67;49.31
77526;BME280;66627;29.424;-98.496;2023-06-24T05:09:53;98808.14;;;29.63;49.35
77526;BME280;66627;29.424;-98.496;2023-06-24T05:12:19;98811.43;;;29.60;49.78
77526;BME280;66627;29.424;-98.496;2023-06-24T05:14:48;98812.04;;;29.43;50.09
77526;BME280;66627;29.424;-98.496;2023-06-24T05:17:10;98811.82;;;28.87;51.24
77526;BME280;66627;29.424;-98.496;2023-06-24T05:19:35;98807.56;;;29.58;49.82
77526;BME280;66627;29.424;-98.496;2023-06-24T05:22:01;98804.11;;;29.74;49.64
77526;BME280;66627;29.424;-98.496;2023-06-24T05:24:26;98797.03;;;29.50;50.06
77526;BME280;66627;29.424;-98.496;2023-06-24T05:26:52;98790.71;;;29.65;50.05
77526;BME280;66627;29.424;-98.496;2023-06-24T05:29:17;98798.44;;;29.90;49.66
77526;BME280;66627;29.424;-98.496;2023-06-24T05:31:42;98802.78;;;29.17;51.05
77526;BME280;66627;29.424;-98.496;2023-06-24T05:34:08;98804.99;;;29.05;51.21
77526;BME280;66627;29.424;-98.496;2023-06-24T05:36:32;98819.07;;;29.04;52.03
77526;BME280;66627;29.424;-98.496;2023-06-24T05:38:59;98828.74;;;28.73;51.84
77526;BME280;66627;29.424;-98.496;2023-06-24T05:41:24;98844.67;;;29.23;51.32
77526;BME280;66627;29.424;-98.496;2023-06-24T05:43:49;98855.44;;;29.16;51.57
77526;BME280;66627;29.424;-98.496;2023-06-24T05:46:15;98857.78;;;28.44;53.38
77526;BME280;66627;29.424;-98.496;2023-06-24T05:48:40;98855.64;;;28.76;52.46
77526;BME280;66627;29.424;-98.496;2023-06-24T05:51:05;98849.31;;;28.87;52.26
77526;BME280;66627;29.424;-98.496;2023-06-24T05:53:32;98846.47;;;28.48;53.69
77526;BME280;66627;29.424;-98.496;2023-06-24T05:56:06;98839.71;;;28.32;53.16
77526;BME280;66627;29.424;-98.496;2023-06-24T05:58:22;98841.25;;;28.85;52.85
77526;BME280;66627;29.424;-98.496;2023-06-24T06:00:48;98840.25;;;28.57;52.81
77526;BME280;66627;29.424;-98.496;2023-06-24T06:03:13;98841.89;;;28.55;53.15
77526;BME280;66627;29.424;-98.496;2023-06-24T06:05:38;98845.24;;;28.31;53.02
77526;BME280;66627;29.424;-98.496;2023-06-24T06:08:03;98848.77;;;28.48;53.01
77526;BME280;66627;29.424;-98.496;2023-06-24T06:10:28;98847.71;;;28.18;53.96
77526;BME280;66627;29.424;-98.496;2023-06-24T06:12:55;98839.92;;;28.64;53.11
77526;BME280;66627;29.424;-98.496;2023-06-24T06:15:20;98836.61;;;28.34;53.29
77526;BME280;66627;29.424;-98.496;2023-06-24T06:17:46;98836.29;;;28.74;52.70
77526;BME280;66627;29.424;-98.496;2023-06-24T06:20:11;98836.89;;;28.34;52.89
77526;BME280;66627;29.424;-98.496;2023-06-24T06:22:36;98834.87;;;28.65;52.68
77526;BME280;66627;29.424;-98.496;2023-06-24T06:25:00;98825.93;;;29.17;51.77
77526;BME280;66627;29.424;-98.496;2023-06-24T06:27:25;98829.48;;;28.51;52.54
77526;BME280;66627;29.424;-98.496;2023-06-24T06:29:51;98832.08;;;28.40;52.92
77526;BME280;66627;29.424;-98.496;2023-06-24T06:32:16;98837.01;;;28.56;52.76
77526;BME280;66627;29.424;-98.496;2023-06-24T06:34:41;98838.40;;;28.40;52.97
77526;BME280;66627;29.424;-98.496;2023-06-24T06:37:07;98839.63;;;28.78;52.85
77526;BME280;66627;29.424;-98.496;2023-06-24T06:39:32;98843.18;;;28.87;52.12
77526;BME280;66627;29.424;-98.496;2023-06-24T06:41:57;98838.20;;;28.99;52.16
77526;BME280;66627;29.424;-98.496;2023-06-24T06:44:22;98835.16;;;28.70;51.77
77526;BME280;66627;29.424;-98.496;2023-06-24T06:46:48;98825.74;;;28.69;51.81
77526;BME280;66627;29.424;-98.496;2023-06-24T06:49:14;98825.26;;;28.55;52.46
77526;BME280;66627;29.424;-98.496;2023-06-24T06:51:38;98819.09;;;28.44;52.39
77526;BME280;66627;29.424;-98.496;2023-06-24T06:54:04;98816.79;;;28.77;52.48
77526;BME280;66627;29.424;-98.496;2023-06-24T06:56:29;98815.29;;;28.19;52.94
77526;BME280;66627;29.424;-98.496;2023-06-24T06:58:54;98820.91;;;28.37;53.16
77526;BME280;66627;29.424;-98.496;2023-06-24T07:01:20;98823.24;;;28.24;53.18
77526;BME280;66627;29.424;-98.496;2023-06-24T07:03:45;98830.82;;;28.66;52.08
77526;BME280;66627;29.424;-98.496;2023-06-24T07:06:10;98837.33;;;28.46;51.91
77526;BME280;66627;29.424;-98.496;2023-06-24T07:08:35;98841.18;;;28.36;52.79
77526;BME280;66627;29.424;-98.496;2023-06-24T07:11:01;98846.23;;;28.56;52.01
77526;BME280;66627;29.424;-98.496;2023-06-24T07:13:26;98857.08;;;28.76;51.87
77526;BME280;66627;29.424;-98.496;2023-06-24T07:15:51;98869.54;;;28.20;52.88
77526;BME280;66627;29.424;-98.496;2023-06-24T07:18:16;98887.84;;;28.03;52.97
77526;BME280;66627;29.424;-98.496;2023-06-24T07:20:41;98893.44;;;27.29;54.56
77526;BME280;66627;29.424;-98.496;2023-06-24T07:23:06;98890.05;;;28.39;52.66
77526;BME280;66627;29.424;-98.496;2023-06-24T07:25:32;98887.53;;;27.99;52.75
77526;BME280;66627;29.424;-98.496;2023-06-24T07:27:57;98881.91;;;29.07;51.33
77526;BME280;66627;29.424;-98.496;2023-06-24T07:30:23;98879.09;;;29.04;51.60
77526;BME280;66627;29.424;-98.496;2023-06-24T07:32:48;98886.76;;;29.19;50.95
77526;BME280;66627;29.424;-98.496;2023-06-24T07:35:13;98893.54;;;29.06;51.31
77526;BME280;66627;29.424;-98.496;2023-06-24T07:37:39;98893.42;;;28.48;51.61
77526;BME280;66627;29.424;-98.496;2023-06-24T07:40:05;98890.93;;;28.45;51.68
77526;BME280;66627;29.424;-98.496;2023-06-24T07:42:29;98885.78;;;28.22;52.10
77526;BME280;66627;29.424;-98.496;2023-06-24T07:44:54;98882.48;;;29.39;50.58
77526;BME280;66627;29.424;-98.496;2023-06-24T07:47:19;98879.28;;;28.89;51.45
77526;BME280;66627;29.424;-98.496;2023-06-24T07:49:44;98877.75;;;28.44;51.88
77526;BME280;66627;29.424;-98.496;2023-06-24T07:52:10;98873.78;;;29.01;51.33
77526;BME280;66627;29.424;-98.496;2023-06-24T07:54:36;98870.57;;;28.64;51.40
77526;BME280;66627;29.424;-98.496;2023-06-24T07:57:01;98870.50;;;28.75;51.34
77526;BME280;66627;29.424;-98.496;2023-06-24T07:59:26;98875.59;;;28.80;51.71
77526;BME280;66627;29.424;-98.496;2023-06-24T08:01:52;98882.99;;;29.31;50.66
77526;BME280;66627;29.424;-98.496;2023-06-24T08:04:16;98887.85;;;28.95;51.20
77526;BME280;66627;29.424;-98.496;2023-06-24T08:06:42;98886.42;;;29.24;50.65
77526;BME280;66627;29.424;-98.496;2023-06-24T08:09:07;98887.80;;;29.33;50.47
77526;BME280;66627;29.424;-98.496;2023-06-24T08:11:34;98886.53;;;29.23;50.69
77526;BME280;66627;29.424;-98.496;2023-06-24T08:13:58;98886.16;;;29.26;50.77
77526;BME280;66627;29.424;-98.496;2023-06-24T08:16:23;98884.77;;;29.28;50.74
77526;BME280;66627;29.424;-98.496;2023-06-24T08:18:48;98891.41;;;28.72;52.02
77526;BME280;66627;29.424;-98.496;2023-06-24T08:21:13;98892.62;;;28.96;50.95
77526;BME280;66627;29.424;-98.496;2023-06-24T08:23:38;98891.87;;;29.20;50.48
77526;BME280;66627;29.424;-98.496;2023-06-24T08:26:03;98888.30;;;28.25;53.01
77526;BME280;66627;29.424;-98.496;2023-06-24T08:28:29;98882.73;;;28.68;52.33
77526;BME280;66627;29.424;-98.496;2023-06-24T08:30:54;98879.14;;;28.55;52.38
77526;BME280;66627;29.424;-98.496;2023-06-24T08:33:19;98879.76;;;29.33;50.97
77526;BME280;66627;29.424;-98.496;2023-06-24T08:35:44;98877.10;;;29.18;51.28
77526;BME280;66627;29.424;-98.496;2023-06-24T08:38:09;98871.22;;;29.05;51.44
77526;BME280;66627;29.424;-98.496;2023-06-24T08:40:34;98865.71;;;28.13;52.82
77526;BME280;66627;29.424;-98.496;2023-06-24T08:42:59;98854.55;;;28.90;51.06
77526;BME280;66627;29.424;-98.496;2023-06-24T08:45:25;98847.20;;;29.42;50.17
77526;BME280;66627;29.424;-98.496;2023-06-24T08:47:50;98843.51;;;29.08;50.89
77526;BME280;66627;29.424;-98.496;2023-06-24T08:50:17;98843.77;;;28.63;51.44
77526;BME280;66627;29.424;-98.496;2023-06-24T08:52:45;98842.54;;;29.03;51.00
77526;BME280;66627;29.424;-98.496;2023-06-24T08:55:07;98842.92;;;29.40;50.17
77526;BME280;66627;29.424;-98.496;2023-06-24T08:57:31;98841.63;;;28.70;51.85
77526;BME280;66627;29.424;-98.496;2023-06-24T08:59:57;98842.76;;;29.28;50.75
77526;BME280;66627;29.424;-98.496;2023-06-24T09:02:22;98841.59;;;28.38;52.43
77526;BME280;66627;29.424;-98.496;2023-06-24T09:04:47;98841.86;;;28.43;52.54
77526;BME280;66627;29.424;-98.496;2023-06-24T09:07:12;98842.53;;;28.66;51.80
77526;BME280;66627;29.424;-98.496;2023-06-24T09:09:43;98852.66;;;27.90;52.87
77526;BME280;66627;29.424;-98.496;2023-06-24T09:12:03;98845.97;;;28.56;51.82
77526;BME280;66627;29.424;-98.496;2023-06-24T09:14:29;98852.73;;;27.97;53.36
77526;BME280;66627;29.424;-98.496;2023-06-24T09:16:54;98852.57;;;27.93;52.88
77526;BME280;66627;29.424;-98.496;2023-06-24T09:19:21;98854.61;;;28.88;50.91
77526;BME280;66627;29.424;-98.496;2023-06-24T09:21:46;98854.39;;;29.32;50.29
77526;BME280;66627;29.424;-98.496;2023-06-24T09:24:09;98852.85;;;29.57;49.96
77526;BME280;66627;29.424;-98.496;2023-06-24T09:26:41;98855.57;;;29.31;50.51
77526;BME280;66627;29.424;-98.496;2023-06-24T09:28:59;98854.75;;;28.81;51.37
77526;BME280;66627;29.424;-98.496;2023-06-24T09:31:25;98852.68;;;28.92;51.71
77526;BME280;66627;29.424;-98.496;2023-06-24T09:33:50;98851.42;;;28.75;51.81
77526;BME280;66627;29.424;-98.496;2023-06-24T09:36:15;98852.64;;;29.01;51.23
77526;BME280;66627;29.424;-98.496;2023-06-24T09:38:42;98849.56;;;29.31;50.38
77526;BME280;66627;29.424;-98.496;2023-06-24T09:41:08;98856.75;;;29.00;51.10
77526;BME280;66627;29.424;-98.496;2023-06-24T09:43:30;98860.00;;;28.58;52.18
77526;BME280;66627;29.424;-98.496;2023-06-24T09:45:56;98865.48;;;28.79;51.15
77526;BME280;66627;29.424;-98.496;2023-06-24T09:48:21;98862.46;;;29.45;50.37
77526;BME280;66627;29.424;-98.496;2023-06-24T09:50:47;98861.71;;;29.38;50.47
77526;BME280;66627;29.424;-98.496;2023-06-24T09:53:12;98859.91;;;29.24;50.63
77526;BME280;66627;29.424;-98.496;2023-06-24T09:55:37;98857.29;;;28.68;51.30
77526;BME280;66627;29.424;-98.496;2023-06-24T09:58:03;98850.79;;;28.37;51.42
77526;BME280;66627;29.424;-98.496;2023-06-24T10:00:27;98846.73;;;28.57;51.65
77526;BME280;66627;29.424;-98.496;2023-06-24T10:02:54;98846.42;;;28.04;52.39
77526;BME280;66627;29.424;-98.496;2023-06-24T10:05:17;98849.44;;;28.24;52.34
77526;BME280;66627;29.424;-98.496;2023-06-24T10:07:43;98851.88;;;28.25;51.86
77526;BME280;66627;29.424;-98.496;2023-06-24T10:10:08;98858.67;;;28.43;52.56
77526;BME280;66627;29.424;-98.496;2023-06-24T10:12:34;98868.48;;;28.00;53.37
77526;BME280;66627;29.424;-98.496;2023-06-24T10:14:58;98877.30;;;27.43;54.03
77526;BME280;66627;29.424;-98.496;2023-06-24T10:17:24;98869.66;;;27.89;53.18
77526;BME280;66627;29.424;-98.496;2023-06-24T10:19:52;98860.47;;;28.63;52.35
77526;BME280;66627;29.424;-98.496;2023-06-24T10:22:15;98852.73;;;28.77;51.78
77526;BME280;66627;29.424;-98.496;2023-06-24T10:24:41;98847.52;;;28.36;52.16
77526;BME280;66627;29.424;-98.496;2023-06-24T10:27:07;98846.78;;;28.87;51.60
77526;BME280;66627;29.424;-98.496;2023-06-24T10:29:33;98848.10;;;28.36;52.45
77526;BME280;66627;29.424;-98.496;2023-06-24T10:31:56;98860.21;;;28.54;51.76
77526;BME280;66627;29.424;-98.496;2023-06-24T10:34:27;98868.90;;;28.44;52.21
77526;BME280;66627;29.424;-98.496;2023-06-24T10:36:53;98877.82;;;28.07;52.72
77526;BME280;66627;29.424;-98.496;2023-06-24T10:41:37;98881.30;;;28.24;52.91
77526;BME280;66627;29.424;-98.496;2023-06-24T10:44:14;98888.70;;;27.78;53.44
77526;BME280;66627;29.424;-98.496;2023-06-24T10:46:27;98882.21;;;27.95;53.04
77526;BME280;66627;29.424;-98.496;2023-06-24T10:48:53;98878.49;;;28.33;52.33
77526;BME280;66627;29.424;-98.496;2023-06-24T10:51:18;98871.10;;;28.63;51.72
77526;BME280;66627;29.424;-98.496;2023-06-24T10:53:43;98872.24;;;28.21;52.33
77526;BME280;66627;29.424;-98.496;2023-06-24T10:56:08;98866.28;;;28.75;51.37
77526;BME280;66627;29.424;-98.496;2023-06-24T10:58:34;98865.64;;;28.35;51.69
77526;BME280;66627;29.424;-98.496;2023-06-24T11:01:07;98868.45;;;28.03;52.31
77526;BME280;66627;29.424;-98.496;2023-06-24T11:03:24;98863.14;;;28.06;52.53
77526;BME280;66627;29.424;-98.496;2023-06-24T11:05:49;98860.26;;;28.45;51.27
77526;BME280;66627;29.424;-98.496;2023-06-24T11:08:15;98862.89;;;28.17;51.73
77526;BME280;66627;29.424;-98.496;2023-06-24T11:10:45;98864.27;;;28.05;52.48
77526;BME280;66627;29.424;-98.496;2023-06-24T11:13:06;98866.04;;;28.15;52.50
77526;BME280;66627;29.424;-98.496;2023-06-24T11:15:31;98869.51;;;28.00;52.20
77526;BME280;66627;29.424;-98.496;2023-06-24T11:17:55;98874.50;;;27.61;53.34
77526;BME280;66627;29.424;-98.496;2023-06-24T11:20:21;98874.21;;;27.04;55.00
77526;BME280;66627;29.424;-98.496;2023-06-24T11:22:46;98868.37;;;26.78;56.26
77526;BME280;66627;29.424;-98.496;2023-06-24T11:25:18;98864.44;;;26.94;56.08
77526;BME280;66627;29.424;-98.496;2023-06-24T11:27:37;98865.11;;;26.57;57.05
77526;BME280;66627;29.424;-98.496;2023-06-24T11:30:03;98863.08;;;26.19;57.78
77526;BME280;66627;29.424;-98.496;2023-06-24T11:32:35;98861.27;;;26.01;58.18
77526;BME280;66627;29.424;-98.496;2023-06-24T11:34:55;98856.15;;;26.60;57.10
77526;BME280;66627;29.424;-98.496;2023-06-24T11:37:19;98854.96;;;26.53;57.30
77526;BME280;66627;29.424;-98.496;2023-06-24T11:39:44;98852.03;;;25.85;58.94
77526;BME280;66627;29.424;-98.496;2023-06-24T11:42:09;98854.19;;;25.84;59.49
77526;BME280;66627;29.424;-98.496;2023-06-24T11:44:34;98857.25;;;26.29;58.31
77526;BME280;66627;29.424;-98.496;2023-06-24T11:47:05;98854.59;;;26.76;57.19
77526;BME280;66627;29.424;-98.496;2023-06-24T11:49:25;98851.92;;;26.97;56.79
77526;BME280;66627;29.424;-98.496;2023-06-24T11:51:51;98845.17;;;27.68;55.21
77526;BME280;66627;29.424;-98.496;2023-06-24T11:54:17;98835.57;;;26.39;57.93
77526;BME280;66627;29.424;-98.496;2023-06-24T11:56:41;98832.99;;;26.84;57.35
77526;BME280;66627;29.424;-98.496;2023-06-24T11:59:07;98832.53;;;27.01;56.79
77526;BME280;66627;29.424;-98.496;2023-06-24T12:01:32;98837.51;;;27.30;56.49
77526;BME280;66627;29.424;-98.496;2023-06-24T12:03:59;98837.03;;;26.80;58.04
77526;BME280;66627;29.424;-98.496;2023-06-24T12:06:23;98836.90;;;25.99;59.58
77526;BME280;66627;29.424;-98.496;2023-06-24T12:08:49;98833.09;;;25.74;60.26
77526;BME280;66627;29.424;-98.496;2023-06-24T12:11:14;98827.83;;;26.92;58.66
77526;BME280;66627;29.424;-98.496;2023-06-24T12:13:39;98834.94;;;26.51;58.61
77526;BME280;66627;29.424;-98.496;2023-06-24T12:16:05;98840.31;;;26.05;59.81
77526;BME280;66627;29.424;-98.496;2023-06-24T12:18:30;98841.69;;;26.58;58.93
77526;BME280;66627;29.424;-98.496;2023-06-24T12:20:55;98845.04;;;26.99;58.14
77526;BME280;66627;29.424;-98.496;2023-06-24T12:23:21;98852.99;;;26.59;58.63
77526;BME280;66627;29.424;-98.496;2023-06-24T12:25:46;98854.93;;;26.27;59.96
77526;BME280;66627;29.424;-98.496;2023-06-24T12:28:10;98852.69;;;26.56;58.95
77526;BME280;66627;29.424;-98.496;2023-06-24T12:30:36;98858.16;;;26.63;59.31
77526;BME280;66627;29.424;-98.496;2023-06-24T12:33:01;98865.34;;;25.82;61.21